sensor_id;sensor_type;location;lat;lon;timestamp;temperature;humidity
69208;SHT31;56321;47.662;8.878;2023-04-01T00:00:30;9.99;68.36
69208;SHT31;56321;47.662;8.878;2023-04-01T00:02:55;9.97;68.84
69208;SHT31;56321;47.662;8.878;2023-04-01T00:05:21;9.92;68.76
69208;SHT31;56321;47.662;8.878;2023-04-01T00:07:46;9.92;69.29
69208;SHT31;56321;47.662;8.878;2023-04-01T00:10:14;9.94;69.54
69208;SHT31;56321;47.662;8.878;2023-04-01T00:12:40;9.87;69.70
69208;SHT31;56321;47.662;8.878;2023-04-01T00:15:08;9.82;69.92
69208;SHT31;56321;47.662;8.878;2023-04-01T00:17:34;9.77;70.33
69208;SHT31;56321;47.662;8.878;2023-04-01T00:20:00;9.70;70.53
69208;SHT31;56321;47.662;8.878;2023-04-01T00:22:25;9.67;70.90
69208;SHT31;56321;47.662;8.878;2023-04-01T00:24:52;9.62;71.56
69208;SHT31;56321;47.662;8.878;2023-04-01T00:27:18;9.57;71.43
69208;SHT31;56321;47.662;8.878;2023-04-01T00:29:44;9.58;71.78
69208;SHT31;56321;47.662;8.878;2023-04-01T00:32:10;9.58;71.72
69208;SHT31;56321;47.662;8.878;2023-04-01T00:34:35;9.54;72.06
69208;SHT31;56321;47.662;8.878;2023-04-01T00:37:02;9.54;72.19
69208;SHT31;56321;47.662;8.878;2023-04-01T00:39:30;9.48;72.45
69208;SHT31;56321;47.662;8.878;2023-04-01T00:41:56;9.46;72.56
69208;SHT31;56321;47.662;8.878;2023-04-01T00:44:24;9.40;72.73
69208;SHT31;56321;47.662;8.878;2023-04-01T00:46:51;9.39;72.65
69208;SHT31;56321;47.662;8.878;2023-04-01T00:49:19;9.36;72.60
69208;SHT31;56321;47.662;8.878;2023-04-01T00:51:47;9.39;72.73
69208;SHT31;56321;47.662;8.878;2023-04-01T00:54:15;9.34;72.57
69208;SHT31;56321;47.662;8.878;2023-04-01T00:56:55;9.29;73.41
69208;SHT31;56321;47.662;8.878;2023-04-01T00:59:27;9.27;72.97
69208;SHT31;56321;47.662;8.878;2023-04-01T01:01:54;9.30;72.92
69208;SHT31;56321;47.662;8.878;2023-04-01T01:04:27;9.29;72.81
69208;SHT31;56321;47.662;8.878;2023-04-01T01:12:40;9.20;73.85
69208;SHT31;56321;47.662;8.878;2023-04-01T01:15:24;9.20;74.09
69208;SHT31;56321;47.662;8.878;2023-04-01T01:18:11;9.18;73.82
69208;SHT31;56321;47.662;8.878;2023-04-01T01:23:42;9.15;74.30
69208;SHT31;56321;47.662;8.878;2023-04-01T01:26:26;9.18;74.16
69208;SHT31;56321;47.662;8.878;2023-04-01T01:32:25;9.20;74.36
69208;SHT31;56321;47.662;8.878;2023-04-01T01:38:06;9.22;73.82
69208;SHT31;56321;47.662;8.878;2023-04-01T01:40:33;9.24;73.64
69208;SHT31;56321;47.662;8.878;2023-04-01T01:43:05;9.22;73.55
69208;SHT31;56321;47.662;8.878;2023-04-01T01:45:32;9.22;73.56
69208;SHT31;56321;47.662;8.878;2023-04-01T01:47:59;9.23;73.23
69208;SHT31;56321;47.662;8.878;2023-04-01T01:50:26;9.23;73.10
69208;SHT31;56321;47.662;8.878;2023-04-01T01:53:07;9.27;73.29
69208;SHT31;56321;47.662;8.878;2023-04-01T01:55:37;9.26;72.81
69208;SHT31;56321;47.662;8.878;2023-04-01T02:00:57;9.30;72.92
69208;SHT31;56321;47.662;8.878;2023-04-01T02:03:25;9.27;72.93
69208;SHT31;56321;47.662;8.878;2023-04-01T02:05:53;9.29;72.96
69208;SHT31;56321;47.662;8.878;2023-04-01T02:08:25;9.32;73.09
69208;SHT31;56321;47.662;8.878;2023-04-01T02:11:06;9.30;72.96
69208;SHT31;56321;47.662;8.878;2023-04-01T02:13:54;9.29;72.74
69208;SHT31;56321;47.662;8.878;2023-04-01T02:16:31;9.27;72.96
69208;SHT31;56321;47.662;8.878;2023-04-01T02:18:59;9.29;72.93
69208;SHT31;56321;47.662;8.878;2023-04-01T02:21:28;9.29;73.12
69208;SHT31;56321;47.662;8.878;2023-04-01T02:23:54;9.26;73.23
69208;SHT31;56321;47.662;8.878;2023-04-01T02:26:23;9.24;73.28
69208;SHT31;56321;47.662;8.878;2023-04-01T02:28:50;9.20;73.36
69208;SHT31;56321;47.662;8.878;2023-04-01T02:31:16;9.22;73.19
69208;SHT31;56321;47.662;8.878;2023-04-01T02:33:42;9.20;73.26
69208;SHT31;56321;47.662;8.878;2023-04-01T02:36:12;9.18;73.47
69208;SHT31;56321;47.662;8.878;2023-04-01T02:38:38;9.18;73.60
69208;SHT31;56321;47.662;8.878;2023-04-01T02:41:04;9.22;73.53
69208;SHT31;56321;47.662;8.878;2023-04-01T02:43:31;9.20;73.22
69208;SHT31;56321;47.662;8.878;2023-04-01T02:45:57;9.22;73.53
69208;SHT31;56321;47.662;8.878;2023-04-01T02:48:22;9.22;73.10
69208;SHT31;56321;47.662;8.878;2023-04-01T02:50:47;9.24;73.09
69208;SHT31;56321;47.662;8.878;2023-04-01T02:53:13;9.23;73.04
69208;SHT31;56321;47.662;8.878;2023-04-01T02:55:38;9.24;72.81
69208;SHT31;56321;47.662;8.878;2023-04-01T02:58:03;9.20;72.99
69208;SHT31;56321;47.662;8.878;2023-04-01T03:00:29;9.23;72.83
69208;SHT31;56321;47.662;8.878;2023-04-01T03:02:55;9.20;72.71
69208;SHT31;56321;47.662;8.878;2023-04-01T03:05:22;9.16;72.40
69208;SHT31;56321;47.662;8.878;2023-04-01T03:07:47;9.12;72.37
69208;SHT31;56321;47.662;8.878;2023-04-01T03:10:12;9.13;72.37
69208;SHT31;56321;47.662;8.878;2023-04-01T03:12:38;9.13;72.41
69208;SHT31;56321;47.662;8.878;2023-04-01T03:15:04;9.13;72.19
69208;SHT31;56321;47.662;8.878;2023-04-01T03:17:29;9.12;72.31
69208;SHT31;56321;47.662;8.878;2023-04-01T03:19:55;9.12;72.43
69208;SHT31;56321;47.662;8.878;2023-04-01T03:22:20;9.13;72.29
69208;SHT31;56321;47.662;8.878;2023-04-01T03:24:47;9.15;72.01
69208;SHT31;56321;47.662;8.878;2023-04-01T03:27:12;9.13;72.10
69208;SHT31;56321;47.662;8.878;2023-04-01T03:29:38;9.12;72.05
69208;SHT31;56321;47.662;8.878;2023-04-01T03:32:03;9.12;71.77
69208;SHT31;56321;47.662;8.878;2023-04-01T03:34:29;9.15;71.90
69208;SHT31;56321;47.662;8.878;2023-04-01T03:36:54;9.16;71.78
69208;SHT31;56321;47.662;8.878;2023-04-01T03:39:20;9.19;71.51
69208;SHT31;56321;47.662;8.878;2023-04-01T03:41:45;9.22;71.37
69208;SHT31;56321;47.662;8.878;2023-04-01T03:44:11;9.23;71.62
69208;SHT31;56321;47.662;8.878;2023-04-01T03:46:36;9.27;71.29
69208;SHT31;56321;47.662;8.878;2023-04-01T03:49:02;9.27;70.92
69208;SHT31;56321;47.662;8.878;2023-04-01T03:51:27;9.23;70.99
69208;SHT31;56321;47.662;8.878;2023-04-01T03:53:53;9.24;70.83
69208;SHT31;56321;47.662;8.878;2023-04-01T03:56:18;9.22;70.74
69208;SHT31;56321;47.662;8.878;2023-04-01T03:58:43;9.22;70.52
69208;SHT31;56321;47.662;8.878;2023-04-01T04:01:20;9.23;70.59
69208;SHT31;56321;47.662;8.878;2023-04-01T04:03:46;9.23;70.73
69208;SHT31;56321;47.662;8.878;2023-04-01T04:06:13;9.26;70.56
69208;SHT31;56321;47.662;8.878;2023-04-01T04:08:38;9.23;70.38
69208;SHT31;56321;47.662;8.878;2023-04-01T04:11:04;9.22;70.34
69208;SHT31;56321;47.662;8.878;2023-04-01T04:13:29;9.24;70.68
69208;SHT31;56321;47.662;8.878;2023-04-01T04:15:55;9.32;70.98
69208;SHT31;56321;47.662;8.878;2023-04-01T04:18:20;9.34;70.80
69208;SHT31;56321;47.662;8.878;2023-04-01T04:20:46;9.33;70.50
69208;SHT31;56321;47.662;8.878;2023-04-01T04:23:17;9.33;71.02
69208;SHT31;56321;47.662;8.878;2023-04-01T04:26:03;9.27;70.85
69208;SHT31;56321;47.662;8.878;2023-04-01T04:28:29;9.27;70.79
69208;SHT31;56321;47.662;8.878;2023-04-01T04:30:54;9.27;70.77
69208;SHT31;56321;47.662;8.878;2023-04-01T04:33:21;9.20;70.98
69208;SHT31;56321;47.662;8.878;2023-04-01T04:35:46;9.18;71.29
69208;SHT31;56321;47.662;8.878;2023-04-01T04:38:11;9.13;71.72
69208;SHT31;56321;47.662;8.878;2023-04-01T04:40:38;9.12;71.80
69208;SHT31;56321;47.662;8.878;2023-04-01T04:43:03;9.11;71.97
69208;SHT31;56321;47.662;8.878;2023-04-01T04:45:29;9.05;72.03
69208;SHT31;56321;47.662;8.878;2023-04-01T04:47:55;8.98;72.19
69208;SHT31;56321;47.662;8.878;2023-04-01T04:50:21;8.92;72.35
69208;SHT31;56321;47.662;8.878;2023-04-01T04:52:46;8.91;72.63
69208;SHT31;56321;47.662;8.878;2023-04-01T04:55:11;8.92;72.61
69208;SHT31;56321;47.662;8.878;2023-04-01T04:57:37;8.89;72.68
69208;SHT31;56321;47.662;8.878;2023-04-01T05:00:02;8.92;73.04
69208;SHT31;56321;47.662;8.878;2023-04-01T05:02:28;8.92;72.83
69208;SHT31;56321;47.662;8.878;2023-04-01T05:04:53;8.92;72.96
69208;SHT31;56321;47.662;8.878;2023-04-01T05:07:19;8.93;73.05
69208;SHT31;56321;47.662;8.878;2023-04-01T05:09:45;8.93;73.17
69208;SHT31;56321;47.662;8.878;2023-04-01T05:12:10;8.98;73.41
69208;SHT31;56321;47.662;8.878;2023-04-01T05:14:38;8.98;73.09
69208;SHT31;56321;47.662;8.878;2023-04-01T05:17:03;8.99;73.02
69208;SHT31;56321;47.662;8.878;2023-04-01T05:19:29;9.01;73.13
69208;SHT31;56321;47.662;8.878;2023-04-01T05:21:54;9.06;73.04
69208;SHT31;56321;47.662;8.878;2023-04-01T05:24:19;9.01;72.80
69208;SHT31;56321;47.662;8.878;2023-04-01T05:26:45;9.03;72.68
69208;SHT31;56321;47.662;8.878;2023-04-01T05:29:10;8.99;72.65
69208;SHT31;56321;47.662;8.878;2023-04-01T05:31:35;9.01;72.78
69208;SHT31;56321;47.662;8.878;2023-04-01T05:34:00;9.01;72.59
69208;SHT31;56321;47.662;8.878;2023-04-01T05:36:26;9.01;72.55
69208;SHT31;56321;47.662;8.878;2023-04-01T05:38:55;9.01;72.35
69208;SHT31;56321;47.662;8.878;2023-04-01T05:41:20;9.02;72.47
69208;SHT31;56321;47.662;8.878;2023-04-01T05:43:45;9.06;72.49
69208;SHT31;56321;47.662;8.878;2023-04-01T05:46:11;9.05;72.52
69208;SHT31;56321;47.662;8.878;2023-04-01T05:48:36;9.09;72.42
69208;SHT31;56321;47.662;8.878;2023-04-01T05:51:02;9.09;72.40
69208;SHT31;56321;47.662;8.878;2023-04-01T05:53:28;9.06;72.62
69208;SHT31;56321;47.662;8.878;2023-04-01T05:55:53;9.02;72.56
69208;SHT31;56321;47.662;8.878;2023-04-01T05:58:18;9.01;72.37
69208;SHT31;56321;47.662;8.878;2023-04-01T06:00:44;9.02;72.82
69208;SHT31;56321;47.662;8.878;2023-04-01T06:03:09;9.05;72.73
69208;SHT31;56321;47.662;8.878;2023-04-01T06:05:43;9.11;72.75
69208;SHT31;56321;47.662;8.878;2023-04-01T06:08:16;9.12;72.43
69208;SHT31;56321;47.662;8.878;2023-04-01T06:13:55;9.18;72.41
69208;SHT31;56321;47.662;8.878;2023-04-01T06:19:14;9.29;71.37
69208;SHT31;56321;47.662;8.878;2023-04-01T06:21:59;9.32;71.41
69208;SHT31;56321;47.662;8.878;2023-04-01T06:24:58;9.34;71.83
69208;SHT31;56321;47.662;8.878;2023-04-01T06:28:00;9.40;71.56
69208;SHT31;56321;47.662;8.878;2023-04-01T06:30:40;9.46;70.71
69208;SHT31;56321;47.662;8.878;2023-04-01T06:33:35;9.46;70.49
69208;SHT31;56321;47.662;8.878;2023-04-01T06:41:56;9.58;70.92
69208;SHT31;56321;47.662;8.878;2023-04-01T06:44:35;9.58;70.84
69208;SHT31;56321;47.662;8.878;2023-04-01T06:50:32;9.57;71.11
69208;SHT31;56321;47.662;8.878;2023-04-01T06:53:15;9.61;71.37
69208;SHT31;56321;47.662;8.878;2023-04-01T06:55:46;9.64;71.00
69208;SHT31;56321;47.662;8.878;2023-04-01T06:58:21;9.67;71.07
69208;SHT31;56321;47.662;8.878;2023-04-01T07:00:50;9.71;71.01
69208;SHT31;56321;47.662;8.878;2023-04-01T07:03:28;9.74;70.94
69208;SHT31;56321;47.662;8.878;2023-04-01T07:06:00;9.81;70.69
69208;SHT31;56321;47.662;8.878;2023-04-01T07:08:27;9.82;70.58
69208;SHT31;56321;47.662;8.878;2023-04-01T07:10:57;9.87;70.24
69208;SHT31;56321;47.662;8.878;2023-04-01T07:13:51;9.94;70.39
69208;SHT31;56321;47.662;8.878;2023-04-01T07:16:28;10.02;70.17
69208;SHT31;56321;47.662;8.878;2023-04-01T07:18:59;10.06;70.42
69208;SHT31;56321;47.662;8.878;2023-04-01T07:21:30;10.12;69.83
69208;SHT31;56321;47.662;8.878;2023-04-01T07:24:05;10.16;69.93
69208;SHT31;56321;47.662;8.878;2023-04-01T07:26:31;10.13;69.43
69208;SHT31;56321;47.662;8.878;2023-04-01T07:28:57;10.13;69.60
69208;SHT31;56321;47.662;8.878;2023-04-01T07:34:41;10.01;69.91
69208;SHT31;56321;47.662;8.878;2023-04-01T07:37:14;9.98;69.81
69208;SHT31;56321;47.662;8.878;2023-04-01T07:42:51;9.95;69.88
69208;SHT31;56321;47.662;8.878;2023-04-01T07:51:00;10.03;70.63
69208;SHT31;56321;47.662;8.878;2023-04-01T07:53:49;10.03;69.92
69208;SHT31;56321;47.662;8.878;2023-04-01T07:56:35;9.97;69.59
69208;SHT31;56321;47.662;8.878;2023-04-01T08:07:18;9.91;69.82
69208;SHT31;56321;47.662;8.878;2023-04-01T08:13:15;9.88;70.09
69208;SHT31;56321;47.662;8.878;2023-04-01T08:18:32;9.92;70.17
69208;SHT31;56321;47.662;8.878;2023-04-01T08:21:01;9.92;70.12
69208;SHT31;56321;47.662;8.878;2023-04-01T08:23:33;9.97;70.06
69208;SHT31;56321;47.662;8.878;2023-04-01T08:26:06;9.95;70.12
69208;SHT31;56321;47.662;8.878;2023-04-01T08:28:39;9.95;69.94
69208;SHT31;56321;47.662;8.878;2023-04-01T08:31:31;9.99;70.25
69208;SHT31;56321;47.662;8.878;2023-04-01T08:33:57;9.99;70.04
69208;SHT31;56321;47.662;8.878;2023-04-01T08:36:34;9.97;69.78
69208;SHT31;56321;47.662;8.878;2023-04-01T08:39:07;9.94;70.09
69208;SHT31;56321;47.662;8.878;2023-04-01T08:52:52;9.91;70.34
69208;SHT31;56321;47.662;8.878;2023-04-01T09:06:33;9.77;70.77
69208;SHT31;56321;47.662;8.878;2023-04-01T09:09:37;9.71;70.74
69208;SHT31;56321;47.662;8.878;2023-04-01T09:12:26;9.71;70.88
69208;SHT31;56321;47.662;8.878;2023-04-01T09:15:19;9.67;71.13
69208;SHT31;56321;47.662;8.878;2023-04-01T09:17:50;9.67;71.24
69208;SHT31;56321;47.662;8.878;2023-04-01T09:40:31;10.12;70.55
69208;SHT31;56321;47.662;8.878;2023-04-01T09:43:06;10.20;70.91
69208;SHT31;56321;47.662;8.878;2023-04-01T09:48:22;10.43;70.35
69208;SHT31;56321;47.662;8.878;2023-04-01T09:56:32;10.49;69.42
69208;SHT31;56321;47.662;8.878;2023-04-01T10:02:10;10.52;69.30
69208;SHT31;56321;47.662;8.878;2023-04-01T10:04:56;10.56;69.22
69208;SHT31;56321;47.662;8.878;2023-04-01T10:10:21;10.81;69.26
69208;SHT31;56321;47.662;8.878;2023-04-01T10:16:03;11.38;67.71
69208;SHT31;56321;47.662;8.878;2023-04-01T10:18:51;11.55;67.74
69208;SHT31;56321;47.662;8.878;2023-04-01T10:27:21;11.31;67.39
69208;SHT31;56321;47.662;8.878;2023-04-01T10:30:29;11.25;67.23
69208;SHT31;56321;47.662;8.878;2023-04-01T10:33:23;11.16;66.49
69208;SHT31;56321;47.662;8.878;2023-04-01T10:39:20;11.07;67.43
69208;SHT31;56321;47.662;8.878;2023-04-01T10:45:02;10.95;67.85
69208;SHT31;56321;47.662;8.878;2023-04-01T11:35:19;14.20;59.45
69208;SHT31;56321;47.662;8.878;2023-04-01T11:38:02;14.05;60.27
69208;SHT31;56321;47.662;8.878;2023-04-01T11:40:39;13.73;60.29
69208;SHT31;56321;47.662;8.878;2023-04-01T11:46:06;13.40;60.67
69208;SHT31;56321;47.662;8.878;2023-04-01T11:54:28;13.14;61.14
69208;SHT31;56321;47.662;8.878;2023-04-01T11:57:41;13.13;62.02
69208;SHT31;56321;47.662;8.878;2023-04-01T12:03:16;13.18;61.12
69208;SHT31;56321;47.662;8.878;2023-04-01T12:06:04;13.15;60.20
69208;SHT31;56321;47.662;8.878;2023-04-01T12:09:11;13.13;59.94
69208;SHT31;56321;47.662;8.878;2023-04-01T12:14:22;12.96;62.16
69208;SHT31;56321;47.662;8.878;2023-04-01T12:17:02;12.80;62.10
69208;SHT31;56321;47.662;8.878;2023-04-01T12:19:39;12.56;62.88
69208;SHT31;56321;47.662;8.878;2023-04-01T12:22:40;12.29;64.01
69208;SHT31;56321;47.662;8.878;2023-04-01T12:28:44;11.79;64.89
69208;SHT31;56321;47.662;8.878;2023-04-01T12:37:03;11.83;67.28
69208;SHT31;56321;47.662;8.878;2023-04-01T12:42:44;12.07;65.30
69208;SHT31;56321;47.662;8.878;2023-04-01T12:45:27;12.11;66.06
69208;SHT31;56321;47.662;8.878;2023-04-01T12:50:31;12.20;66.45
69208;SHT31;56321;47.662;8.878;2023-04-01T12:56:14;12.13;66.30
69208;SHT31;56321;47.662;8.878;2023-04-01T12:59:16;12.14;66.05
69208;SHT31;56321;47.662;8.878;2023-04-01T13:04:28;12.08;64.95
69208;SHT31;56321;47.662;8.878;2023-04-01T13:07:36;12.00;65.67
69208;SHT31;56321;47.662;8.878;2023-04-01T13:13:00;11.86;66.01
69208;SHT31;56321;47.662;8.878;2023-04-01T13:15:47;11.83;66.00
69208;SHT31;56321;47.662;8.878;2023-04-01T13:18:24;11.81;65.46
69208;SHT31;56321;47.662;8.878;2023-04-01T13:21:33;11.79;65.26
69208;SHT31;56321;47.662;8.878;2023-04-01T13:24:04;11.77;66.08
69208;SHT31;56321;47.662;8.878;2023-04-01T13:29:35;11.76;65.54
69208;SHT31;56321;47.662;8.878;2023-04-01T13:32:35;11.81;65.93
69208;SHT31;56321;47.662;8.878;2023-04-01T13:35:23;11.84;65.91
69208;SHT31;56321;47.662;8.878;2023-04-01T13:38:32;11.84;65.28
69208;SHT31;56321;47.662;8.878;2023-04-01T13:43:50;11.84;65.49
69208;SHT31;56321;47.662;8.878;2023-04-01T13:49:23;11.91;65.83
69208;SHT31;56321;47.662;8.878;2023-04-01T13:52:18;11.93;65.71
69208;SHT31;56321;47.662;8.878;2023-04-01T14:10:45;11.60;69.63
69208;SHT31;56321;47.662;8.878;2023-04-01T14:13:23;11.67;70.08
69208;SHT31;56321;47.662;8.878;2023-04-01T14:18:30;11.81;70.18
69208;SHT31;56321;47.662;8.878;2023-04-01T14:21:28;11.90;70.69
69208;SHT31;56321;47.662;8.878;2023-04-01T14:29:32;11.84;70.29
69208;SHT31;56321;47.662;8.878;2023-04-01T14:38:06;11.70;69.58
69208;SHT31;56321;47.662;8.878;2023-04-01T14:40:50;11.67;69.69
69208;SHT31;56321;47.662;8.878;2023-04-01T14:47:19;11.59;70.19
69208;SHT31;56321;47.662;8.878;2023-04-01T14:49:51;11.50;70.13
69208;SHT31;56321;47.662;8.878;2023-04-01T14:54:46;11.55;69.73
69208;SHT31;56321;47.662;8.878;2023-04-01T14:57:15;11.60;69.45
69208;SHT31;56321;47.662;8.878;2023-04-01T14:59:53;11.66;69.34
69208;SHT31;56321;47.662;8.878;2023-04-01T15:02:33;11.67;70.14
69208;SHT31;56321;47.662;8.878;2023-04-01T15:05:12;11.74;69.62
69208;SHT31;56321;47.662;8.878;2023-04-01T15:15:48;11.98;69.66
69208;SHT31;56321;47.662;8.878;2023-04-01T15:18:24;12.02;69.03
69208;SHT31;56321;47.662;8.878;2023-04-01T15:24:21;11.91;67.50
69208;SHT31;56321;47.662;8.878;2023-04-01T15:27:11;11.84;67.58
69208;SHT31;56321;47.662;8.878;2023-04-01T15:29:59;11.81;68.34
69208;SHT31;56321;47.662;8.878;2023-04-01T15:40:40;11.74;67.12
69208;SHT31;56321;47.662;8.878;2023-04-01T15:43:20;11.73;67.47
69208;SHT31;56321;47.662;8.878;2023-04-01T15:51:52;11.79;67.26
69208;SHT31;56321;47.662;8.878;2023-04-01T15:54:27;11.76;66.59
69208;SHT31;56321;47.662;8.878;2023-04-01T15:57:15;11.73;66.56
69208;SHT31;56321;47.662;8.878;2023-04-01T16:00:30;11.67;66.04
69208;SHT31;56321;47.662;8.878;2023-04-01T16:11:28;11.65;66.25
69208;SHT31;56321;47.662;8.878;2023-04-01T16:22:00;11.56;66.02
69208;SHT31;56321;47.662;8.878;2023-04-01T16:24:32;11.55;66.52
69208;SHT31;56321;47.662;8.878;2023-04-01T16:30:16;11.59;66.60
69208;SHT31;56321;47.662;8.878;2023-04-01T16:32:54;11.63;66.48
69208;SHT31;56321;47.662;8.878;2023-04-01T16:35:41;11.63;66.71
69208;SHT31;56321;47.662;8.878;2023-04-01T16:38:15;11.66;66.54
69208;SHT31;56321;47.662;8.878;2023-04-01T16:46:30;11.79;65.77
69208;SHT31;56321;47.662;8.878;2023-04-01T16:51:52;11.74;66.31
69208;SHT31;56321;47.662;8.878;2023-04-01T16:57:02;11.76;66.17
69208;SHT31;56321;47.662;8.878;2023-04-01T16:59:59;11.71;65.96
69208;SHT31;56321;47.662;8.878;2023-04-01T17:02:39;11.70;65.58
69208;SHT31;56321;47.662;8.878;2023-04-01T17:05:10;11.67;65.53
69208;SHT31;56321;47.662;8.878;2023-04-01T17:15:58;11.58;64.83
69208;SHT31;56321;47.662;8.878;2023-04-01T17:18:34;11.56;65.19
69208;SHT31;56321;47.662;8.878;2023-04-01T17:21:38;11.53;64.95
69208;SHT31;56321;47.662;8.878;2023-04-01T17:35:02;11.38;66.53
69208;SHT31;56321;47.662;8.878;2023-04-01T17:40:35;11.26;67.84
69208;SHT31;56321;47.662;8.878;2023-04-01T17:45:58;11.16;67.78
69208;SHT31;56321;47.662;8.878;2023-04-01T17:53:47;11.01;67.50
69208;SHT31;56321;47.662;8.878;2023-04-01T17:59:22;10.90;68.08
69208;SHT31;56321;47.662;8.878;2023-04-01T18:07:32;10.91;68.57
69208;SHT31;56321;47.662;8.878;2023-04-01T18:10:25;10.85;68.85
69208;SHT31;56321;47.662;8.878;2023-04-01T18:16:40;10.87;68.76
69208;SHT31;56321;47.662;8.878;2023-04-01T18:21:43;10.81;68.54
69208;SHT31;56321;47.662;8.878;2023-04-01T18:24:19;10.78;68.89
69208;SHT31;56321;47.662;8.878;2023-04-01T18:26:51;10.80;68.83
69208;SHT31;56321;47.662;8.878;2023-04-01T18:29:37;10.77;69.25
69208;SHT31;56321;47.662;8.878;2023-04-01T18:32:35;10.74;69.06
69208;SHT31;56321;47.662;8.878;2023-04-01T18:37:47;10.78;69.08
69208;SHT31;56321;47.662;8.878;2023-04-01T18:40:32;10.74;68.92
69208;SHT31;56321;47.662;8.878;2023-04-01T18:45:54;10.74;69.21
69208;SHT31;56321;47.662;8.878;2023-04-01T18:48:51;10.73;69.95
69208;SHT31;56321;47.662;8.878;2023-04-01T18:54:01;10.67;69.86
69208;SHT31;56321;47.662;8.878;2023-04-01T18:56:39;10.70;69.92
69208;SHT31;56321;47.662;8.878;2023-04-01T18:59:23;10.66;70.12
69208;SHT31;56321;47.662;8.878;2023-04-01T19:04:47;10.61;69.29
69208;SHT31;56321;47.662;8.878;2023-04-01T19:07:48;10.63;69.77
69208;SHT31;56321;47.662;8.878;2023-04-01T19:15:44;10.57;69.46
69208;SHT31;56321;47.662;8.878;2023-04-01T19:26:40;10.52;69.47
69208;SHT31;56321;47.662;8.878;2023-04-01T19:37:11;10.45;69.04
69208;SHT31;56321;47.662;8.878;2023-04-01T19:39:47;10.42;69.49
69208;SHT31;56321;47.662;8.878;2023-04-01T19:51:00;10.33;70.36
69208;SHT31;56321;47.662;8.878;2023-04-01T19:56:23;10.26;70.20
69208;SHT31;56321;47.662;8.878;2023-04-01T19:59:11;10.20;70.01
69208;SHT31;56321;47.662;8.878;2023-04-01T20:01:46;10.19;69.96
69208;SHT31;56321;47.662;8.878;2023-04-01T20:04:33;10.13;69.88
69208;SHT31;56321;47.662;8.878;2023-04-01T20:07:09;10.13;69.94
69208;SHT31;56321;47.662;8.878;2023-04-01T20:12:55;10.12;69.96
69208;SHT31;56321;47.662;8.878;2023-04-01T20:15:34;10.08;70.33
69208;SHT31;56321;47.662;8.878;2023-04-01T20:18:25;10.06;70.87
69208;SHT31;56321;47.662;8.878;2023-04-01T20:21:00;10.08;70.91
69208;SHT31;56321;47.662;8.878;2023-04-01T20:23:34;10.05;70.74
69208;SHT31;56321;47.662;8.878;2023-04-01T20:26:08;10.01;70.59
69208;SHT31;56321;47.662;8.878;2023-04-01T20:31:29;9.94;71.14
69208;SHT31;56321;47.662;8.878;2023-04-01T20:34:22;9.89;71.60
69208;SHT31;56321;47.662;8.878;2023-04-01T20:39:52;9.88;70.86
69208;SHT31;56321;47.662;8.878;2023-04-01T20:48:11;9.77;71.48
69208;SHT31;56321;47.662;8.878;2023-04-01T20:51:21;9.70;71.82
69208;SHT31;56321;47.662;8.878;2023-04-01T20:54:19;9.64;71.97
69208;SHT31;56321;47.662;8.878;2023-04-01T21:02:32;9.41;72.21
69208;SHT31;56321;47.662;8.878;2023-04-01T21:05:26;9.39;72.21
69208;SHT31;56321;47.662;8.878;2023-04-01T21:07:57;9.32;72.18
69208;SHT31;56321;47.662;8.878;2023-04-01T21:10:41;9.27;72.41
69208;SHT31;56321;47.662;8.878;2023-04-01T21:16:01;9.16;72.71
69208;SHT31;56321;47.662;8.878;2023-04-01T21:32:37;8.89;73.46
69208;SHT31;56321;47.662;8.878;2023-04-01T21:52:55;8.82;74.01
69208;SHT31;56321;47.662;8.878;2023-04-01T22:07:21;8.72;73.85
69208;SHT31;56321;47.662;8.878;2023-04-01T22:13:16;8.67;73.71
69208;SHT31;56321;47.662;8.878;2023-04-01T22:18:29;8.61;73.68
69208;SHT31;56321;47.662;8.878;2023-04-01T22:23:59;8.58;73.93
69208;SHT31;56321;47.662;8.878;2023-04-01T22:29:02;8.61;74.07
69208;SHT31;56321;47.662;8.878;2023-04-01T22:31:55;8.61;74.32
69208;SHT31;56321;47.662;8.878;2023-04-01T22:34:32;8.57;73.94
69208;SHT31;56321;47.662;8.878;2023-04-01T22:39:48;8.54;74.24
69208;SHT31;56321;47.662;8.878;2023-04-01T22:55:51;8.88;74.26
69208;SHT31;56321;47.662;8.878;2023-04-01T22:58:35;8.93;74.39
69208;SHT31;56321;47.662;8.878;2023-04-01T23:01:07;8.96;73.90
69208;SHT31;56321;47.662;8.878;2023-04-01T23:03:39;8.99;73.64
69208;SHT31;56321;47.662;8.878;2023-04-01T23:06:06;8.99;73.63
69208;SHT31;56321;47.662;8.878;2023-04-01T23:11:07;8.99;73.65
69208;SHT31;56321;47.662;8.878;2023-04-01T23:13:38;8.95;73.83
69208;SHT31;56321;47.662;8.878;2023-04-01T23:16:04;8.93;73.85
69208;SHT31;56321;47.662;8.878;2023-04-01T23:21:48;8.88;73.68
69208;SHT31;56321;47.662;8.878;2023-04-01T23:27:35;8.75;73.29
69208;SHT31;56321;47.662;8.878;2023-04-01T23:30:02;8.72;73.34
69208;SHT31;56321;47.662;8.878;2023-04-01T23:32:28;8.68;73.64
69208;SHT31;56321;47.662;8.878;2023-04-01T23:34:58;8.65;73.74
69208;SHT31;56321;47.662;8.878;2023-04-01T23:37:26;8.68;73.74
69208;SHT31;56321;47.662;8.878;2023-04-01T23:39:54;8.65;73.55
69208;SHT31;56321;47.662;8.878;2023-04-01T23:42:27;8.65;73.86
69208;SHT31;56321;47.662;8.878;2023-04-01T23:44:57;8.69;73.86
69208;SHT31;56321;47.662;8.878;2023-04-01T23:47:34;8.71;74.16
69208;SHT31;56321;47.662;8.878;2023-04-01T23:50:09;8.72;74.06
69208;SHT31;56321;47.662;8.878;2023-04-01T23:52:42;8.79;73.86
69208;SHT31;56321;47.662;8.878;2023-04-01T23:55:19;8.79;73.66
69208;SHT31;56321;47.662;8.878;2023-04-01T23:58:13;8.81;73.75
